Portada
METAR-TAF:

METAR-TAF

Aeropuertos :

Vientián, Laos

Aeropuerto Internacional Wattay

latitud: 17-57N, longitud: 102-34E, altitud: 171 m

Observación

El informe se hizo hace 39 minutos, a las 16:00 UTC
Viento calma
Temperatura 26°C
Humedad 74%
Presión 1008 hPa
Visibilidad: 3000 m
Nubes dispersas a una altura de 4000 ft
neblina

METAR: VLVT 281600Z 00000KT 3000 BR SCT040 26/21 Q1008 NOSIG

Hora: 23:39 (16:39 UTC)

Pronóstico

El informe se hizo hace 5 horas y 39 minutos, a las 11:00 UTC
Pronóstico válido del 28 a las 12 UTC al 29 a las 12 UTC
Viento 6 kt del este-sureste
Visibilidad: 4000 m
Escasas nubes a una altura de 2000 ft
Escasas nubes a una altura de 5000 ft
Nubes dispersas a una altura de 20000 ft
neblina

TAF: VLVT 281100Z 2812/2912 12006KT 4000 BR FEW020 FEW050 SCT200

Observaciones y pronósticos meteorológicos de más de 4000 aeropuertos (mensajes METAR y TAF).

Los puntos amarillos y rojos representan las estaciones disponibles.

Ponga el ratón en el punto deseado para ver el nombre de la estación.

Haga clic para ver las observaciones y los pronósticos meteorológicos.

Para cambiar el mapa : haga clic en los botones verdes con una cruz de color negro para hacer un zoom, en el botón verde con un guión para alejar o en las flechas verdes para mapas adyacentes.


METAR-TAF: